createdAt,value
2019-03-12T00:00:08.845Z,2.40
2019-03-12T00:02:36.421Z,2.00
2019-03-12T00:05:04.295Z,2.43
2019-03-12T00:07:31.830Z,2.60
2019-03-12T00:09:59.360Z,2.53
2019-03-12T00:12:29.350Z,3.00
2019-03-12T00:14:56.872Z,3.07
2019-03-12T00:17:24.413Z,2.73
2019-03-12T00:19:51.966Z,2.33
2019-03-12T00:22:19.497Z,3.17
2019-03-12T00:24:47.084Z,3.20
2019-03-12T00:27:15.146Z,2.80
2019-03-12T00:29:42.679Z,2.80
2019-03-12T00:32:10.227Z,3.37
2019-03-12T00:34:37.789Z,2.80
2019-03-12T00:37:05.347Z,3.73
2019-03-12T00:39:32.894Z,3.43
2019-03-12T00:42:00.428Z,3.73
2019-03-12T00:44:27.989Z,3.60
2019-03-12T00:46:55.492Z,4.17
2019-03-12T00:49:23.072Z,3.60
2019-03-12T00:51:50.586Z,4.50
2019-03-12T00:54:18.163Z,3.83
2019-03-12T00:56:45.706Z,4.30
2019-03-12T00:59:13.497Z,4.37
2019-03-12T01:01:41.059Z,4.80
2019-03-12T01:04:08.578Z,4.43
2019-03-12T01:06:36.204Z,4.33
2019-03-12T01:09:05.905Z,4.07
2019-03-12T01:11:33.540Z,4.17
2019-03-12T01:14:01.098Z,3.10
2019-03-12T01:16:28.613Z,4.73
2019-03-12T01:18:56.142Z,4.03
2019-03-12T01:21:23.992Z,3.97
2019-03-12T01:23:51.523Z,3.57
2019-03-12T01:26:19.028Z,3.67
2019-03-12T01:28:46.614Z,3.40
2019-03-12T01:31:14.134Z,3.80
2019-03-12T01:33:41.629Z,3.63
2019-03-12T01:36:09.217Z,3.07
2019-03-12T01:38:36.820Z,3.53
2019-03-12T01:41:04.665Z,2.87
2019-03-12T01:43:32.173Z,3.23
2019-03-12T01:45:59.677Z,3.17
2019-03-12T01:48:29.007Z,2.70
2019-03-12T01:50:56.536Z,2.87
2019-03-12T01:53:24.065Z,3.50
2019-03-12T01:55:51.664Z,3.10
2019-03-12T01:58:19.429Z,3.23
2019-03-12T02:00:46.980Z,3.27
2019-03-12T02:03:14.634Z,3.10
2019-03-12T02:05:42.508Z,3.30
2019-03-12T02:08:10.128Z,2.77
2019-03-12T02:10:37.687Z,3.57
2019-03-12T02:13:05.270Z,2.60
2019-03-12T02:15:33.061Z,2.70
2019-03-12T02:18:00.616Z,1.90
2019-03-12T02:20:28.161Z,2.30
2019-03-12T02:22:56.769Z,2.30
2019-03-12T02:25:25.756Z,3.23
2019-03-12T02:27:53.303Z,2.93
2019-03-12T02:30:21.348Z,2.40
2019-03-12T02:32:48.887Z,2.13
2019-03-12T02:35:16.480Z,2.63
2019-03-12T02:37:44.072Z,2.00
2019-03-12T02:40:12.063Z,2.20
2019-03-12T02:42:39.614Z,1.90
2019-03-12T02:45:07.320Z,2.00
2019-03-12T02:47:35.199Z,3.07
2019-03-12T02:50:02.776Z,2.50
2019-03-12T02:52:30.320Z,2.73
2019-03-12T02:54:57.845Z,2.53
2019-03-12T02:57:25.773Z,3.07
2019-03-12T02:59:53.564Z,2.40
2019-03-12T03:02:21.152Z,2.50
2019-03-12T03:04:49.348Z,2.53
2019-03-12T03:07:35.320Z,2.67
2019-03-12T03:10:04.031Z,2.20
2019-03-12T03:12:31.601Z,2.50
2019-03-12T03:15:07.723Z,2.40
2019-03-12T03:17:35.323Z,2.90
2019-03-12T03:20:03.460Z,2.50
2019-03-12T03:22:31.269Z,2.50
2019-03-12T03:24:58.842Z,4.53
2019-03-12T03:27:29.350Z,2.40
2019-03-12T03:29:55.744Z,2.70
2019-03-12T03:32:23.346Z,2.47
2019-03-12T03:34:50.894Z,2.20
2019-03-12T03:37:18.487Z,2.27
2019-03-12T03:39:46.025Z,2.03
2019-03-12T03:42:13.914Z,2.53
2019-03-12T03:44:42.783Z,2.33
2019-03-12T03:47:10.620Z,2.53
2019-03-12T03:49:38.164Z,2.57
2019-03-12T03:52:05.706Z,3.17
2019-03-12T03:54:33.633Z,2.60
2019-03-12T03:57:04.476Z,2.43
2019-03-12T03:59:32.356Z,2.77
2019-03-12T04:02:01.107Z,3.13
2019-03-12T04:04:30.074Z,2.60
2019-03-12T04:06:57.634Z,2.80
2019-03-12T04:09:25.212Z,2.43
2019-03-12T04:11:52.714Z,3.00
2019-03-12T04:14:20.285Z,2.87
2019-03-12T04:16:48.142Z,2.83
2019-03-12T04:19:15.892Z,2.67
2019-03-12T04:21:43.446Z,2.87
2019-03-12T04:24:12.343Z,2.30
2019-03-12T04:26:40.258Z,2.97
2019-03-12T04:29:07.795Z,2.77
2019-03-12T04:31:35.314Z,3.00
2019-03-12T04:34:26.286Z,2.70
2019-03-12T04:36:53.808Z,2.73
2019-03-12T04:39:21.669Z,3.10
2019-03-12T04:41:49.208Z,3.50
2019-03-12T04:44:16.747Z,3.17
2019-03-12T04:46:44.291Z,3.47
2019-03-12T04:49:11.828Z,3.43
2019-03-12T04:51:39.669Z,3.30
2019-03-12T04:54:07.125Z,3.40
2019-03-12T04:56:34.628Z,3.97
2019-03-12T04:59:02.456Z,4.60
2019-03-12T05:01:29.998Z,3.97
2019-03-12T05:03:57.503Z,3.80
2019-03-12T05:06:25.315Z,3.73
2019-03-12T05:08:52.817Z,3.63
2019-03-12T05:11:20.333Z,3.60
2019-03-12T05:14:26.900Z,4.23
2019-03-12T05:17:27.077Z,4.33
2019-03-12T05:19:54.627Z,4.87
2019-03-12T05:22:23.530Z,4.80
2019-03-12T05:24:51.144Z,4.50
2019-03-12T05:27:18.675Z,4.40
2019-03-12T05:29:46.211Z,3.83
2019-03-12T05:32:13.900Z,4.83
2019-03-12T05:34:41.376Z,4.07
2019-03-12T05:37:08.873Z,4.33
2019-03-12T05:39:36.433Z,4.10
2019-03-12T05:42:04.202Z,4.67
2019-03-12T05:44:31.711Z,3.80
2019-03-12T05:46:59.241Z,3.80
2019-03-12T05:49:26.776Z,3.87
2019-03-12T05:51:54.630Z,4.80
2019-03-12T05:54:22.141Z,4.20
2019-03-12T05:56:49.689Z,3.90
2019-03-12T05:59:17.212Z,4.00
2019-03-12T06:01:46.747Z,3.93
2019-03-12T06:04:14.000Z,4.10
2019-03-12T06:06:41.494Z,3.60
2019-03-12T06:09:08.991Z,3.63
2019-03-12T06:11:36.483Z,3.70
2019-03-12T06:14:04.235Z,3.60
2019-03-12T06:16:37.644Z,4.30
2019-03-12T06:19:05.128Z,4.73
2019-03-12T06:21:32.913Z,4.47
2019-03-12T06:24:00.467Z,4.17
2019-03-12T06:26:28.011Z,4.30
2019-03-12T06:28:55.463Z,3.67
2019-03-12T06:31:50.608Z,3.60
2019-03-12T06:34:33.212Z,4.50
2019-03-12T06:37:23.200Z,3.40
2019-03-12T06:40:16.477Z,2.97
2019-03-12T06:43:06.328Z,3.90
2019-03-12T06:45:47.357Z,4.23
2019-03-12T06:48:32.894Z,3.40
2019-03-12T06:51:22.833Z,3.63
2019-03-12T06:54:02.696Z,3.87
2019-03-12T06:56:50.089Z,4.07
2019-03-12T06:59:40.130Z,3.93
2019-03-12T07:02:25.241Z,3.97
2019-03-12T07:05:02.549Z,3.63
2019-03-12T07:07:48.115Z,3.63
2019-03-12T07:10:41.323Z,3.33
2019-03-12T07:13:34.317Z,3.93
2019-03-12T07:16:06.275Z,3.33
2019-03-12T07:19:02.305Z,4.60
2019-03-12T07:21:46.146Z,3.53
2019-03-12T07:24:51.517Z,4.07
2019-03-12T07:27:41.541Z,3.90
2019-03-12T07:30:27.307Z,3.87
2019-03-12T07:33:06.937Z,4.03
2019-03-12T07:36:05.752Z,4.00
2019-03-12T07:38:39.006Z,3.33
2019-03-12T07:41:30.409Z,4.13
2019-03-12T07:44:02.500Z,4.23
2019-03-12T07:46:43.198Z,3.47
2019-03-12T07:49:45.407Z,3.47
2019-03-12T07:52:19.215Z,3.47
2019-03-12T07:54:56.715Z,3.47
2019-03-12T07:57:46.854Z,3.60
2019-03-12T08:00:27.062Z,3.47
2019-03-12T08:03:19.895Z,2.90
2019-03-12T08:06:05.558Z,2.70
2019-03-12T08:08:51.344Z,3.90
2019-03-12T08:11:38.324Z,3.07
2019-03-12T08:14:16.583Z,3.33
2019-03-12T08:17:02.056Z,3.27
2019-03-12T08:19:51.775Z,2.67
2019-03-12T08:22:44.978Z,3.10
2019-03-12T08:25:24.270Z,2.70
2019-03-12T08:28:14.405Z,2.43
2019-03-12T08:31:00.437Z,2.43
2019-03-12T08:33:56.209Z,3.40
2019-03-12T08:36:48.827Z,2.30
2019-03-12T08:39:38.841Z,2.93
2019-03-12T08:42:31.005Z,2.47
2019-03-12T08:45:17.073Z,3.30
2019-03-12T08:48:00.512Z,3.03
2019-03-12T08:50:50.181Z,3.10
2019-03-12T08:53:39.642Z,2.43
2019-03-12T08:56:22.198Z,2.70
2019-03-12T08:58:58.404Z,2.83
2019-03-12T09:02:02.522Z,3.03
2019-03-12T09:04:46.035Z,2.03
2019-03-12T09:07:31.438Z,2.50
2019-03-12T09:10:17.272Z,3.07
2019-03-12T09:13:16.171Z,2.73
2019-03-12T09:16:03.155Z,2.80
2019-03-12T09:18:52.854Z,2.50
2019-03-12T09:21:32.975Z,2.97
2019-03-12T09:24:19.695Z,3.70
2019-03-12T09:27:05.539Z,2.57
2019-03-12T09:29:52.496Z,3.17
2019-03-12T09:32:38.239Z,2.80
2019-03-12T09:35:17.740Z,2.30
2019-03-12T09:38:09.803Z,2.10
2019-03-12T09:41:08.830Z,3.60
2019-03-12T09:43:55.862Z,2.70
2019-03-12T09:46:29.713Z,2.97
2019-03-12T09:49:15.526Z,2.47
2019-03-12T09:52:11.611Z,2.43
2019-03-12T09:54:57.162Z,2.13
2019-03-12T09:57:56.157Z,1.87
2019-03-12T10:00:42.144Z,2.20
2019-03-12T10:03:32.056Z,2.73
2019-03-12T10:06:18.993Z,2.22
2019-03-12T10:08:59.786Z,2.53
2019-03-12T10:11:36.280Z,2.40
2019-03-12T10:14:13.495Z,1.80
2019-03-12T10:16:59.140Z,2.33
2019-03-12T10:19:44.923Z,2.05
2019-03-12T10:22:34.499Z,1.70
2019-03-12T10:25:33.577Z,1.80
2019-03-12T10:28:32.860Z,1.98
2019-03-12T10:31:38.004Z,1.87
2019-03-12T10:34:33.925Z,2.20
2019-03-12T10:37:19.596Z,1.93
2019-03-12T10:40:10.592Z,1.77
2019-03-12T10:42:49.727Z,1.80
2019-03-12T10:45:24.092Z,1.77
2019-03-12T10:47:51.822Z,1.67
2019-03-12T10:50:19.504Z,2.20
2019-03-12T10:52:46.963Z,1.77
2019-03-12T10:55:14.432Z,2.40
2019-03-12T10:57:41.943Z,1.92
2019-03-12T11:00:10.496Z,2.10
2019-03-12T11:02:40.575Z,2.17
2019-03-12T11:05:07.254Z,2.25
2019-03-12T11:07:34.709Z,1.67
2019-03-12T11:10:02.243Z,1.70
2019-03-12T11:12:29.723Z,2.00
2019-03-12T11:14:57.238Z,2.05
2019-03-12T11:17:24.672Z,2.05
2019-03-12T11:19:52.131Z,2.05
2019-03-12T11:22:19.638Z,2.22
2019-03-12T11:24:47.104Z,1.98
2019-03-12T11:27:14.904Z,2.52
2019-03-12T11:29:42.658Z,2.33
2019-03-12T11:32:10.154Z,1.65
2019-03-12T11:34:38.709Z,2.33
2019-03-12T11:37:13.238Z,2.05
2019-03-12T11:39:40.938Z,1.90
2019-03-12T11:42:08.513Z,2.00
2019-03-12T11:44:36.016Z,2.40
2019-03-12T11:47:03.527Z,2.55
2019-03-12T11:49:31.083Z,2.35
2019-03-12T11:51:58.550Z,2.10
2019-03-12T11:54:26.072Z,2.37
2019-03-12T11:56:53.941Z,2.08
2019-03-12T11:59:21.429Z,2.20
2019-03-12T12:01:49.040Z,2.27
2019-03-12T12:04:16.488Z,2.02
2019-03-12T12:06:44.030Z,2.65
2019-03-12T12:09:11.560Z,2.52
2019-03-12T12:11:39.042Z,2.02
2019-03-12T12:14:06.848Z,2.33
2019-03-12T12:16:34.386Z,2.40
2019-03-12T12:19:01.842Z,2.25
2019-03-12T12:21:29.356Z,2.87
2019-03-12T12:23:56.980Z,1.77
2019-03-12T12:26:24.913Z,2.02
2019-03-12T12:28:52.407Z,1.75
2019-03-12T12:31:20.190Z,1.80
2019-03-12T12:33:47.701Z,2.22
2019-03-12T12:36:16.149Z,2.05
2019-03-12T12:38:43.658Z,3.70
2019-03-12T12:41:11.463Z,1.72
2019-03-12T12:43:39.424Z,1.60
2019-03-12T12:46:06.915Z,1.40
2019-03-12T12:48:34.418Z,1.70
2019-03-12T12:51:03.825Z,2.20
2019-03-12T12:53:31.548Z,2.30
2019-03-12T12:55:59.388Z,1.60
2019-03-12T12:58:32.139Z,1.77
2019-03-12T13:01:00.255Z,1.77
2019-03-12T13:03:27.904Z,1.72
2019-03-12T13:05:55.869Z,1.77
2019-03-12T13:08:23.674Z,1.70
2019-03-12T13:10:52.882Z,1.65
2019-03-12T13:13:20.748Z,1.55
2019-03-12T13:15:48.361Z,1.72
2019-03-12T13:18:16.750Z,2.00
2019-03-12T13:20:44.552Z,1.62
2019-03-12T13:23:13.945Z,1.52
2019-03-12T13:25:42.084Z,1.60
2019-03-12T13:28:09.846Z,1.60
2019-03-12T13:30:37.412Z,1.45
2019-03-12T13:33:05.131Z,1.72
2019-03-12T13:35:32.693Z,1.37
2019-03-12T13:38:00.781Z,1.55
2019-03-12T13:40:28.569Z,2.00
2019-03-12T13:42:56.513Z,1.87
2019-03-12T13:45:24.409Z,1.65
2019-03-12T13:47:52.085Z,1.92
2019-03-12T13:50:19.599Z,1.67
2019-03-12T13:52:47.171Z,2.45
2019-03-12T13:55:14.975Z,1.80
2019-03-12T13:57:43.009Z,2.05
2019-03-12T14:00:13.811Z,1.65
2019-03-12T14:02:41.458Z,1.90
2019-03-12T14:05:09.049Z,1.85
2019-03-12T14:07:36.705Z,2.10
2019-03-12T14:10:05.716Z,1.75
2019-03-12T14:12:33.337Z,1.47
2019-03-12T14:15:00.852Z,1.42
2019-03-12T14:17:28.402Z,1.47
2019-03-12T14:19:57.729Z,1.70
2019-03-12T14:22:25.254Z,2.00
2019-03-12T14:24:52.815Z,1.45
2019-03-12T14:27:20.628Z,2.12
2019-03-12T14:29:48.273Z,1.80
2019-03-12T14:32:15.849Z,1.55
2019-03-12T14:34:45.911Z,1.12
2019-03-12T14:37:13.582Z,1.50
2019-03-12T14:39:41.941Z,1.37
2019-03-12T14:42:09.529Z,1.13
2019-03-12T14:44:37.087Z,1.67
2019-03-12T14:47:06.204Z,1.75
2019-03-12T14:49:35.329Z,1.30
2019-03-12T14:52:30.847Z,1.30
2019-03-12T14:54:58.716Z,1.17
2019-03-12T14:57:26.191Z,1.40
2019-03-12T14:59:53.705Z,1.45
2019-03-12T15:02:21.245Z,1.80
2019-03-12T15:04:48.787Z,1.20
2019-03-12T15:07:16.275Z,1.70
2019-03-12T15:09:43.832Z,1.17
2019-03-12T15:12:12.032Z,1.03
2019-03-12T15:14:39.741Z,1.50
2019-03-12T15:17:07.701Z,1.55
2019-03-12T15:19:35.260Z,1.33
2019-03-12T15:22:03.113Z,1.35
2019-03-12T15:24:30.654Z,1.42
2019-03-12T15:26:59.020Z,1.32
2019-03-12T15:29:26.680Z,1.30
2019-03-12T15:32:03.669Z,1.55
2019-03-12T15:34:24.122Z,1.75
2019-03-12T15:36:52.337Z,1.27
2019-03-12T15:39:20.179Z,1.42
2019-03-12T15:41:47.665Z,0.90
2019-03-12T15:44:15.143Z,1.10
2019-03-12T15:46:42.676Z,1.45
2019-03-12T15:49:14.789Z,1.57
2019-03-12T15:51:42.299Z,1.65
2019-03-12T15:54:09.890Z,1.77
2019-03-12T15:56:37.464Z,1.40
2019-03-12T15:59:05.009Z,1.22
2019-03-12T16:01:32.574Z,1.32
2019-03-12T16:04:00.080Z,1.27
2019-03-12T16:06:27.865Z,1.40
2019-03-12T16:08:55.420Z,1.52
2019-03-12T16:11:22.952Z,1.40
2019-03-12T16:13:50.460Z,1.62
2019-03-12T16:16:17.980Z,1.27
2019-03-12T16:18:45.495Z,1.40
2019-03-12T16:21:13.037Z,1.35
2019-03-12T16:23:40.511Z,1.90
2019-03-12T16:26:08.056Z,1.32
2019-03-12T16:28:35.858Z,1.20
2019-03-12T16:31:03.344Z,1.30
2019-03-12T16:33:30.832Z,1.57
2019-03-12T16:35:58.354Z,1.40
2019-03-12T16:38:25.929Z,1.40
2019-03-12T16:40:53.696Z,1.53
2019-03-12T16:43:22.303Z,1.30
2019-03-12T16:45:50.296Z,1.20
2019-03-12T16:48:18.089Z,1.40
2019-03-12T16:50:45.559Z,1.40
2019-03-12T16:53:13.058Z,1.40
2019-03-12T16:55:40.543Z,1.63
2019-03-12T16:58:08.071Z,1.60
2019-03-12T17:00:35.593Z,1.77
2019-03-12T17:03:03.056Z,1.60
2019-03-12T17:05:30.535Z,2.63
2019-03-12T17:07:57.999Z,1.67
2019-03-12T17:10:25.551Z,1.43
2019-03-12T17:12:53.090Z,1.77
2019-03-12T17:15:20.531Z,1.53
2019-03-12T17:17:48.022Z,2.00
2019-03-12T17:20:15.735Z,2.07
2019-03-12T17:22:43.548Z,1.60
2019-03-12T17:25:11.494Z,1.63
2019-03-12T17:27:39.318Z,1.97
2019-03-12T17:30:10.296Z,1.60
2019-03-12T17:32:38.079Z,1.83
2019-03-12T17:35:06.787Z,1.37
2019-03-12T17:37:34.318Z,1.50
2019-03-12T17:40:01.793Z,1.70
2019-03-12T17:42:29.669Z,2.03
2019-03-12T17:44:57.215Z,1.57
2019-03-12T17:47:24.688Z,1.73
2019-03-12T17:49:52.186Z,2.20
2019-03-12T17:52:20.305Z,1.57
2019-03-12T17:54:47.836Z,2.30
2019-03-12T17:57:15.590Z,1.60
2019-03-12T17:59:43.159Z,2.20
2019-03-12T18:02:10.760Z,1.80
2019-03-12T18:04:38.304Z,2.30
2019-03-12T18:07:13.418Z,1.90
2019-03-12T18:09:41.450Z,2.33
2019-03-12T18:12:09.954Z,2.03
2019-03-12T18:14:37.647Z,2.00
2019-03-12T18:17:05.673Z,2.23
2019-03-12T18:19:33.262Z,2.67
2019-03-12T18:22:01.891Z,2.47
2019-03-12T18:24:29.925Z,2.63
2019-03-12T18:26:57.601Z,2.10
2019-03-12T18:29:25.492Z,2.33
2019-03-12T18:31:53.012Z,2.37
2019-03-12T18:34:20.590Z,2.90
2019-03-12T18:36:48.647Z,2.80
2019-03-12T18:39:16.457Z,2.40
2019-03-12T18:41:44.055Z,2.40
2019-03-12T18:44:11.681Z,2.80
2019-03-12T18:46:40.700Z,2.27
2019-03-12T18:49:09.216Z,2.47
2019-03-12T18:51:36.843Z,1.90
2019-03-12T18:54:04.743Z,2.63
2019-03-12T18:56:32.617Z,2.40
2019-03-12T18:59:00.398Z,2.23
2019-03-12T19:01:28.639Z,2.67
2019-03-12T19:03:56.320Z,3.00
2019-03-12T19:06:23.985Z,2.57
2019-03-12T19:08:51.629Z,2.80
2019-03-12T19:11:19.269Z,2.70
2019-03-12T19:13:47.823Z,2.37
2019-03-12T19:16:16.012Z,3.20
2019-03-12T19:18:43.584Z,3.00
2019-03-12T19:21:12.147Z,2.90
2019-03-12T19:23:40.126Z,2.83
2019-03-12T19:26:08.755Z,2.93
2019-03-12T19:28:36.399Z,3.00
2019-03-12T19:31:22.743Z,3.33
2019-03-12T19:33:52.753Z,2.80
2019-03-12T19:36:20.887Z,3.30
2019-03-12T19:38:49.171Z,2.67
2019-03-12T19:41:17.728Z,2.73
2019-03-12T19:43:45.334Z,2.70
2019-03-12T19:46:12.935Z,2.60
2019-03-12T19:48:40.520Z,2.40
2019-03-12T19:51:08.198Z,2.70
2019-03-12T19:53:36.186Z,2.50
2019-03-12T19:56:03.823Z,2.40
2019-03-12T19:58:31.422Z,2.23
2019-03-12T20:01:00.223Z,2.43
2019-03-12T20:03:27.964Z,2.73
2019-03-12T20:05:55.453Z,2.53
2019-03-12T20:08:23.520Z,3.40
2019-03-12T20:11:33.243Z,2.57
2019-03-12T20:14:38.337Z,2.60
2019-03-12T20:17:54.183Z,2.30
2019-03-12T20:20:55.232Z,2.47
2019-03-12T20:24:19.935Z,2.33
2019-03-12T20:27:28.204Z,2.23
2019-03-12T20:30:19.028Z,2.50
2019-03-12T20:33:36.067Z,2.27
2019-03-12T20:36:52.795Z,2.50
2019-03-12T20:39:56.921Z,2.30
2019-03-12T20:43:01.034Z,2.40
2019-03-12T20:46:04.783Z,2.40
2019-03-12T20:49:14.271Z,2.27
2019-03-12T20:52:18.269Z,2.20
2019-03-12T20:55:45.870Z,1.93
2019-03-12T20:58:59.149Z,1.60
2019-03-12T21:02:23.122Z,2.00
2019-03-12T21:05:48.122Z,1.87
2019-03-12T21:08:50.338Z,1.50
2019-03-12T21:11:54.760Z,2.13
2019-03-12T21:15:07.005Z,1.67
2019-03-12T21:17:54.551Z,2.27
2019-03-12T21:21:19.040Z,2.03
2019-03-12T21:23:56.157Z,1.57
2019-03-12T21:26:59.258Z,1.57
2019-03-12T21:29:45.020Z,1.83
2019-03-12T21:32:14.652Z,1.90
2019-03-12T21:34:42.189Z,2.13
2019-03-12T21:37:09.913Z,1.90
2019-03-12T21:39:37.466Z,2.10
2019-03-12T21:42:05.833Z,2.10
2019-03-12T21:44:33.543Z,2.30
2019-03-12T21:47:01.281Z,1.97
2019-03-12T21:49:28.795Z,2.27
2019-03-12T21:51:56.357Z,2.13
2019-03-12T21:54:23.902Z,2.10
2019-03-12T21:56:51.827Z,2.40
2019-03-12T21:59:19.675Z,2.40
2019-03-12T22:01:47.205Z,1.93
2019-03-12T22:04:14.807Z,1.97
2019-03-12T22:06:42.367Z,1.80
2019-03-12T22:09:09.929Z,2.13
2019-03-12T22:11:37.741Z,1.70
2019-03-12T22:14:05.356Z,1.67
2019-03-12T22:16:32.881Z,1.77
2019-03-12T22:19:00.395Z,1.80
2019-03-12T22:21:37.797Z,2.17
2019-03-12T22:24:07.102Z,1.53
2019-03-12T22:26:34.967Z,1.80
2019-03-12T22:29:02.541Z,2.07
2019-03-12T22:31:30.067Z,1.90
2019-03-12T22:33:58.820Z,1.73
2019-03-12T22:36:26.433Z,1.50
2019-03-12T22:38:53.891Z,1.80
2019-03-12T22:41:21.456Z,1.87
2019-03-12T22:43:48.976Z,1.70
2019-03-12T22:46:16.658Z,1.70
2019-03-12T22:48:44.202Z,1.37
2019-03-12T22:51:11.733Z,1.80
2019-03-12T22:53:39.274Z,1.83
2019-03-12T22:56:06.804Z,1.80
2019-03-12T22:58:34.363Z,1.33
2019-03-12T23:01:02.210Z,1.20
2019-03-12T23:03:29.738Z,1.33
2019-03-12T23:05:57.302Z,2.13
2019-03-12T23:08:26.270Z,1.67
2019-03-12T23:10:53.916Z,1.80
2019-03-12T23:13:22.035Z,1.93
2019-03-12T23:15:49.580Z,1.60
2019-03-12T23:18:17.081Z,1.70
2019-03-12T23:20:44.696Z,1.27
2019-03-12T23:23:12.241Z,1.40
2019-03-12T23:25:39.779Z,1.70
2019-03-12T23:28:07.395Z,1.63
2019-03-12T23:30:34.895Z,1.10
2019-03-12T23:33:02.651Z,1.40
2019-03-12T23:35:30.180Z,1.30
2019-03-12T23:37:57.754Z,1.60
2019-03-12T23:40:25.301Z,1.30
2019-03-12T23:42:52.822Z,1.20
2019-03-12T23:45:20.393Z,1.63
2019-03-12T23:47:50.310Z,1.67
2019-03-12T23:50:17.838Z,1.33
2019-03-12T23:52:45.576Z,1.30
2019-03-12T23:55:14.047Z,1.60
2019-03-12T23:57:41.583Z,1.57
